createdAt,value
2018-11-12T00:00:23.519Z,100814.19
2018-11-12T00:01:03.080Z,100817.94
2018-11-12T00:01:40.940Z,100815.25
2018-11-12T00:02:18.795Z,100819.55
2018-11-12T00:03:00.864Z,100821.16
2018-11-12T00:03:38.842Z,100822.49
2018-11-12T00:04:16.970Z,100824.64
2018-11-12T00:04:54.767Z,100820.90
2018-11-12T00:05:32.641Z,100824.11
2018-11-12T00:06:10.700Z,100831.64
2018-11-12T00:06:48.655Z,100829.20
2018-11-12T00:07:26.612Z,100826.52
2018-11-12T00:08:04.488Z,100828.38
2018-11-12T00:08:42.532Z,100827.30
2018-11-12T00:09:20.404Z,100839.69
2018-11-12T00:09:58.360Z,100838.32
2018-11-12T00:10:36.226Z,100838.58
2018-11-12T00:11:14.095Z,100841.81
2018-11-12T00:11:51.880Z,100847.47
2018-11-12T00:12:30.007Z,100852.58
2018-11-12T00:13:07.893Z,100859.03
2018-11-12T00:13:45.940Z,100859.30
2018-11-12T00:14:23.856Z,100864.95
2018-11-12T00:15:01.946Z,100860.36
2018-11-12T00:15:40.052Z,100862.78
2018-11-12T00:16:18.169Z,100869.80
2018-11-12T00:16:56.099Z,100871.41
2018-11-12T00:17:34.172Z,100870.33
2018-11-12T00:18:11.973Z,100869.24
2018-11-12T00:18:49.877Z,100870.86
2018-11-12T00:19:27.807Z,100872.20
2018-11-12T00:20:05.972Z,100876.77
2018-11-12T00:20:44.740Z,100878.66
2018-11-12T00:21:22.595Z,100881.07
2018-11-12T00:22:00.672Z,100881.07
2018-11-12T00:22:39.065Z,100887.81
2018-11-12T00:23:17.036Z,100881.07
2018-11-12T00:23:54.946Z,100886.46
2018-11-12T00:24:32.782Z,100893.46
2018-11-12T00:25:10.970Z,100889.42
2018-11-12T00:25:48.963Z,100893.46
2018-11-12T00:26:27.005Z,100896.16
2018-11-12T00:27:04.927Z,100893.46
2018-11-12T00:27:43.024Z,100897.50
2018-11-12T00:28:20.914Z,100898.57
2018-11-12T00:28:58.701Z,100900.98
2018-11-12T00:29:36.555Z,100902.59
2018-11-12T00:30:18.602Z,100905.02
2018-11-12T00:30:56.751Z,100903.94
2018-11-12T00:31:34.565Z,100905.29
2018-11-12T00:32:12.437Z,100905.29
2018-11-12T00:32:50.940Z,100907.70
2018-11-12T00:33:29.004Z,100906.36
2018-11-12T00:34:06.825Z,100905.81
2018-11-12T00:34:44.713Z,100913.90
2018-11-12T00:35:22.564Z,100910.94
2018-11-12T00:36:00.490Z,100909.59
2018-11-12T00:36:38.650Z,100909.31
2018-11-12T00:37:16.456Z,100910.38
2018-11-12T00:37:54.807Z,100912.83
2018-11-12T00:38:32.865Z,100912.83
2018-11-12T00:39:13.830Z,100912.55
2018-11-12T00:39:52.669Z,100910.11
2018-11-12T00:40:30.743Z,100916.87
2018-11-12T00:41:11.070Z,100912.55
2018-11-12T00:41:49.043Z,100914.42
2018-11-12T00:42:26.906Z,100914.94
2018-11-12T00:43:04.991Z,100917.62
2018-11-12T00:43:42.954Z,100923.25
2018-11-12T00:44:21.140Z,100926.73
2018-11-12T00:44:59.371Z,100920.78
2018-11-12T00:45:37.251Z,100929.95
2018-11-12T00:46:15.299Z,100923.95
2018-11-12T00:46:54.131Z,100927.69
2018-11-12T00:47:32.132Z,100928.50
2018-11-12T00:48:10.196Z,100930.09
2018-11-12T00:48:48.105Z,100934.92
2018-11-12T00:49:25.966Z,100936.54
2018-11-12T00:50:03.846Z,100931.66
2018-11-12T00:50:42.168Z,100934.59
2018-11-12T00:51:20.046Z,100940.23
2018-11-12T00:51:57.796Z,100939.41
2018-11-12T00:52:35.894Z,100942.63
2018-11-12T00:53:13.751Z,100934.02
2018-11-12T00:53:52.376Z,100947.17
2018-11-12T00:54:30.274Z,100945.84
2018-11-12T00:55:08.399Z,100947.97
2018-11-12T00:55:46.384Z,100954.97
2018-11-12T00:56:24.457Z,100952.81
2018-11-12T00:57:02.417Z,100954.14
2018-11-12T00:57:41.774Z,100957.39
2018-11-12T00:58:19.598Z,100959.55
2018-11-12T00:58:57.573Z,100959.52
2018-11-12T00:59:35.374Z,100967.05
2018-11-12T01:03:16.370Z,100968.67
2018-11-12T01:03:54.298Z,100970.03
2018-11-12T01:04:32.143Z,100967.88
2018-11-12T01:05:10.597Z,100964.89
2018-11-12T01:05:48.594Z,100974.86
2018-11-12T01:06:26.645Z,100975.11
2018-11-12T01:07:04.444Z,100971.06
2018-11-12T01:07:42.519Z,100976.98
2018-11-12T01:08:20.585Z,100971.59
2018-11-12T01:08:58.605Z,100976.70
2018-11-12T01:09:36.484Z,100977.77
2018-11-12T01:10:15.643Z,100978.05
2018-11-12T01:10:53.703Z,100980.73
2018-11-12T01:11:31.579Z,100983.16
2018-11-12T01:12:10.747Z,100985.86
2018-11-12T01:12:49.009Z,100983.14
2018-11-12T01:13:26.995Z,100986.67
2018-11-12T01:14:04.845Z,100986.94
2018-11-12T01:14:42.933Z,100981.80
2018-11-12T01:15:22.203Z,100988.26
2018-11-12T01:16:00.149Z,100981.23
2018-11-12T01:16:38.023Z,100984.47
2018-11-12T01:17:15.906Z,100982.00
2018-11-12T01:17:53.814Z,100983.36
2018-11-12T01:18:31.700Z,100984.13
2018-11-12T01:19:09.731Z,100980.89
2018-11-12T01:19:47.700Z,100980.89
2018-11-12T01:20:25.666Z,100984.11
2018-11-12T01:21:03.423Z,100978.42
2018-11-12T01:21:41.295Z,100978.42
2018-11-12T01:22:19.148Z,100981.38
2018-11-12T01:22:57.051Z,100979.46
2018-11-12T01:23:35.001Z,100978.11
2018-11-12T01:24:13.292Z,100974.32
2018-11-12T01:24:51.146Z,100983.23
2018-11-12T01:25:29.365Z,100979.73
2018-11-12T01:26:07.463Z,100982.43
2018-11-12T01:26:45.315Z,100977.81
2018-11-12T01:27:23.162Z,100982.58
2018-11-12T01:28:01.196Z,100978.53
2018-11-12T01:28:39.111Z,100977.44
2018-11-12T01:29:16.938Z,100977.47
2018-11-12T01:29:56.226Z,100977.98
2018-11-12T01:30:35.405Z,100980.66
2018-11-12T01:31:13.367Z,100978.21
2018-11-12T01:31:51.535Z,100975.80
2018-11-12T01:32:29.443Z,100977.64
2018-11-12T01:33:07.489Z,100973.59
2018-11-12T01:33:45.379Z,100978.41
2018-11-12T01:34:23.396Z,100978.95
2018-11-12T01:35:01.416Z,100975.14
2018-11-12T01:35:39.268Z,100973.81
2018-11-12T01:36:17.190Z,100979.67
2018-11-12T01:36:55.128Z,100981.80
2018-11-12T01:37:33.652Z,100979.58
2018-11-12T01:38:11.539Z,100979.84
2018-11-12T01:38:49.557Z,100983.31
2018-11-12T01:39:27.717Z,100981.12
2018-11-12T01:40:05.488Z,100983.24
2018-11-12T01:40:43.441Z,100983.18
2018-11-12T01:41:21.379Z,100973.43
2018-11-12T01:42:00.358Z,100970.69
2018-11-12T01:42:38.191Z,100971.45
2018-11-12T01:43:16.244Z,100975.95
2018-11-12T01:43:54.110Z,100978.33
2018-11-12T01:44:31.877Z,100975.08
2018-11-12T01:45:13.204Z,100967.48
2018-11-12T01:45:51.230Z,100974.20
2018-11-12T01:46:29.122Z,100973.65
2018-11-12T01:47:06.933Z,100968.75
2018-11-12T01:47:47.060Z,100969.52
2018-11-12T01:48:25.749Z,100974.59
2018-11-12T01:49:03.652Z,100969.70
2018-11-12T01:49:41.962Z,100981.53
2018-11-12T01:50:20.901Z,100974.70
2018-11-12T01:50:58.744Z,100975.74
2018-11-12T01:51:36.803Z,100975.44
2018-11-12T01:52:14.659Z,100977.05
2018-11-12T01:52:52.802Z,100979.75
2018-11-12T01:53:30.893Z,100982.45
2018-11-12T01:54:08.879Z,100983.32
2018-11-12T01:54:47.701Z,100979.59
2018-11-12T01:55:26.653Z,100972.40
2018-11-12T01:56:04.642Z,100978.80
2018-11-12T01:56:42.503Z,100980.14
2018-11-12T01:57:20.386Z,100979.59
2018-11-12T01:57:58.780Z,100982.00
2018-11-12T01:58:36.797Z,100984.23
2018-11-12T01:59:15.079Z,100987.53
2018-11-12T01:59:52.953Z,100982.12
2018-11-12T02:00:30.874Z,100986.17
2018-11-12T02:01:08.898Z,100990.20
2018-11-12T02:01:46.762Z,100985.63
2018-11-12T02:02:24.711Z,100992.61
2018-11-12T02:03:02.901Z,100987.49
2018-11-12T02:03:40.780Z,100993.95
2018-11-12T02:04:18.554Z,100990.96
2018-11-12T02:04:56.446Z,100990.13
2018-11-12T02:05:34.412Z,100993.66
2018-11-12T02:06:12.285Z,100994.98
2018-11-12T02:06:50.173Z,100988.26
2018-11-12T02:07:28.124Z,100990.63
2018-11-12T02:08:05.896Z,100994.42
2018-11-12T02:08:43.879Z,100993.84
2018-11-12T02:09:21.967Z,100994.09
2018-11-12T02:10:00.352Z,100991.92
2018-11-12T02:10:38.172Z,100992.44
2018-11-12T02:11:16.144Z,100988.89
2018-11-12T02:11:54.065Z,100986.69
2018-11-12T02:12:31.896Z,100983.65
2018-11-12T02:13:10.124Z,100987.12
2018-11-12T02:13:48.127Z,100990.33
2018-11-12T02:14:25.983Z,100978.95
2018-11-12T02:15:03.807Z,100989.18
2018-11-12T02:15:41.676Z,100984.23
2018-11-12T02:16:19.614Z,100981.73
2018-11-12T02:16:58.093Z,100978.69
2018-11-12T02:17:35.904Z,100981.06
2018-11-12T02:18:13.914Z,100981.80
2018-11-12T02:18:51.841Z,100969.41
2018-11-12T02:19:29.757Z,100981.72
2018-11-12T02:20:08.135Z,100979.77
2018-11-12T02:20:45.922Z,100978.41
2018-11-12T02:21:23.818Z,100979.41
2018-11-12T02:22:01.859Z,100980.10
2018-11-12T02:22:39.909Z,100976.60
2018-11-12T02:23:17.677Z,100978.64
2018-11-12T02:23:56.505Z,100977.84
2018-11-12T02:24:34.420Z,100975.45
2018-11-12T02:25:13.387Z,100974.12
2018-11-12T02:25:51.260Z,100974.52
2018-11-12T02:26:30.023Z,100976.78
2018-11-12T02:27:08.451Z,100971.55
2018-11-12T02:27:46.297Z,100975.06
2018-11-12T02:28:24.104Z,100971.24
2018-11-12T02:29:02.068Z,100975.84
2018-11-12T02:29:39.943Z,100974.42
2018-11-12T02:30:22.737Z,100970.17
2018-11-12T02:31:00.772Z,100968.55
2018-11-12T02:31:38.755Z,100972.39
2018-11-12T02:32:16.644Z,100971.16
2018-11-12T02:32:55.136Z,100969.05
2018-11-12T02:33:33.042Z,100968.94
2018-11-12T02:34:11.005Z,100966.11
2018-11-12T02:34:48.816Z,100967.88
2018-11-12T02:35:26.906Z,100970.84
2018-11-12T02:36:05.026Z,100973.64
2018-11-12T02:36:42.836Z,100970.50
2018-11-12T02:37:20.961Z,100971.48
2018-11-12T02:37:58.958Z,100971.94
2018-11-12T02:38:36.807Z,100965.86
2018-11-12T02:39:14.915Z,100970.30
2018-11-12T02:39:52.636Z,100965.36
2018-11-12T02:40:30.697Z,100967.94
2018-11-12T02:41:09.377Z,100967.80
2018-11-12T02:41:47.427Z,100969.78
2018-11-12T02:42:25.511Z,100968.36
2018-11-12T02:43:03.874Z,100966.72
2018-11-12T02:43:41.684Z,100971.22
2018-11-12T02:44:19.994Z,100973.63
2018-11-12T02:44:58.001Z,100962.06
2018-11-12T02:45:36.619Z,100971.02
2018-11-12T02:46:15.862Z,100967.05
2018-11-12T02:46:56.456Z,100969.91
2018-11-12T02:47:34.376Z,100965.72
2018-11-12T02:48:13.292Z,100970.53
2018-11-12T02:48:51.946Z,100969.27
2018-11-12T02:49:29.872Z,100961.75
2018-11-12T02:50:08.239Z,100967.81
2018-11-12T02:50:46.228Z,100971.33
2018-11-12T02:51:24.890Z,100972.47
2018-11-12T02:52:02.809Z,100969.13
2018-11-12T02:52:40.780Z,100964.22
2018-11-12T02:53:18.710Z,100966.69
2018-11-12T02:53:56.589Z,100960.47
2018-11-12T02:54:34.580Z,100962.17
2018-11-12T02:55:15.218Z,100959.83
2018-11-12T02:55:53.131Z,100957.20
2018-11-12T02:56:31.203Z,100955.72
2018-11-12T02:57:09.106Z,100959.88
2018-11-12T02:57:47.783Z,100959.81
2018-11-12T02:58:25.736Z,100954.56
2018-11-12T02:59:03.562Z,100951.20
2018-11-12T02:59:41.396Z,100949.13
2018-11-12T03:00:24.281Z,100948.73
2018-11-12T03:01:02.213Z,100947.12
2018-11-12T03:01:39.971Z,100949.21
2018-11-12T03:02:17.841Z,100951.30
2018-11-12T03:02:55.867Z,100950.90
2018-11-12T03:03:34.071Z,100944.81
2018-11-12T03:04:12.786Z,100947.38
2018-11-12T03:04:51.667Z,100948.26
2018-11-12T03:05:29.523Z,100938.98
2018-11-12T03:06:07.541Z,100945.94
2018-11-12T03:06:45.571Z,100945.13
2018-11-12T03:07:23.432Z,100942.70
2018-11-12T03:08:01.450Z,100947.89
2018-11-12T03:08:39.368Z,100941.48
2018-11-12T03:09:17.400Z,100942.05
2018-11-12T03:09:55.228Z,100937.25
2018-11-12T03:10:33.028Z,100938.86
2018-11-12T03:11:11.104Z,100938.13
2018-11-12T03:11:48.977Z,100936.05
2018-11-12T03:12:28.217Z,100930.17
2018-11-12T03:13:06.095Z,100931.52
2018-11-12T03:13:43.974Z,100930.58
2018-11-12T03:14:21.978Z,100935.16
2018-11-12T03:15:00.019Z,100938.55
2018-11-12T03:15:38.039Z,100932.74
2018-11-12T03:16:15.923Z,100938.28
2018-11-12T03:16:54.502Z,100932.02
2018-11-12T03:17:32.319Z,100929.05
2018-11-12T03:18:10.585Z,100938.07
2018-11-12T03:18:49.784Z,100931.66
2018-11-12T03:19:27.607Z,100931.41
2018-11-12T03:20:05.760Z,100924.00
2018-11-12T03:20:43.796Z,100933.13
2018-11-12T03:21:22.563Z,100929.30
2018-11-12T03:22:00.438Z,100926.41
2018-11-12T03:22:38.607Z,100925.13
2018-11-12T03:23:16.495Z,100921.78
2018-11-12T03:23:54.339Z,100919.90
2018-11-12T03:24:32.119Z,100920.95
2018-11-12T03:25:11.970Z,100922.36
2018-11-12T03:25:49.840Z,100917.62
2018-11-12T03:26:27.788Z,100919.53
2018-11-12T03:27:05.730Z,100925.20
2018-11-12T03:27:44.378Z,100923.22
2018-11-12T03:28:22.338Z,100923.32
2018-11-12T03:29:00.732Z,100920.84
2018-11-12T03:29:38.568Z,100922.64
2018-11-12T03:30:18.939Z,100921.84
2018-11-12T03:30:58.167Z,100922.81
2018-11-12T03:31:38.141Z,100916.89
2018-11-12T03:32:16.960Z,100913.62
2018-11-12T03:32:56.027Z,100915.54
2018-11-12T03:33:34.020Z,100919.13
2018-11-12T03:34:14.600Z,100914.54
2018-11-12T03:34:52.503Z,100917.94
2018-11-12T03:35:30.360Z,100914.78
2018-11-12T03:36:09.140Z,100910.34
2018-11-12T03:36:48.523Z,100914.66
2018-11-12T03:37:26.421Z,100909.08
2018-11-12T03:38:04.322Z,100907.33
2018-11-12T03:38:42.324Z,100907.02
2018-11-12T03:39:20.299Z,100908.93
2018-11-12T03:39:59.413Z,100903.66
2018-11-12T03:43:45.779Z,100909.22
2018-11-12T03:44:23.635Z,100904.50
2018-11-12T03:45:01.486Z,100906.02
2018-11-12T03:45:39.379Z,100906.66
2018-11-12T03:46:17.371Z,100900.11
2018-11-12T03:46:55.199Z,100894.11
2018-11-12T03:47:32.940Z,100897.22
2018-11-12T03:48:10.942Z,100899.86
2018-11-12T03:48:48.846Z,100904.98
2018-11-12T03:49:26.801Z,100896.98
2018-11-12T03:50:04.728Z,100898.06
2018-11-12T03:50:42.607Z,100898.30
2018-11-12T03:51:20.596Z,100899.10
2018-11-12T03:51:58.487Z,100895.98
2018-11-12T03:52:36.512Z,100892.55
2018-11-12T03:53:14.351Z,100888.06
2018-11-12T03:53:52.270Z,100889.03
2018-11-12T03:54:30.984Z,100888.79
2018-11-12T03:55:09.137Z,100887.94
2018-11-12T03:55:46.912Z,100882.50
2018-11-12T03:56:25.687Z,100885.70
2018-11-12T03:57:04.464Z,100880.58
2018-11-12T03:57:42.392Z,100886.58
2018-11-12T03:58:20.422Z,100883.59
2018-11-12T03:58:59.085Z,100884.09
2018-11-12T03:59:36.966Z,100883.22
2018-11-12T04:00:19.695Z,100882.34
2018-11-12T04:00:58.152Z,100879.14
2018-11-12T04:01:40.301Z,100882.34
2018-11-12T04:02:18.141Z,100877.37
2018-11-12T04:02:56.161Z,100883.78
2018-11-12T04:03:34.221Z,100876.09
2018-11-12T04:04:12.457Z,100877.70
2018-11-12T04:04:50.407Z,100872.25
2018-11-12T04:05:28.691Z,100873.94
2018-11-12T04:06:06.563Z,100871.70
2018-11-12T04:06:44.828Z,100873.94
2018-11-12T04:07:24.697Z,100874.66
2018-11-12T04:08:02.556Z,100874.34
2018-11-12T04:08:41.275Z,100872.02
2018-11-12T04:09:19.280Z,100871.37
2018-11-12T04:09:57.060Z,100870.49
2018-11-12T04:10:35.136Z,100870.73
2018-11-12T04:11:14.191Z,100869.00
2018-11-12T04:11:52.797Z,100864.27
2018-11-12T04:12:30.747Z,100866.83
2018-11-12T04:13:10.820Z,100861.15
2018-11-12T04:13:48.697Z,100866.50
2018-11-12T04:14:26.889Z,100865.70
2018-11-12T04:15:04.786Z,100862.51
2018-11-12T04:15:42.960Z,100864.11
2018-11-12T04:16:21.872Z,100860.91
2018-11-12T04:16:59.882Z,100855.70
2018-11-12T04:17:37.718Z,100852.90
2018-11-12T04:18:15.588Z,100854.73
2018-11-12T04:18:53.405Z,100859.94
2018-11-12T04:19:32.013Z,100855.53
2018-11-12T04:20:10.921Z,100853.70
2018-11-12T04:20:48.786Z,100847.61
2018-11-12T04:21:26.841Z,100847.84
2018-11-12T04:22:04.635Z,100846.99
2018-11-12T04:22:43.248Z,100840.11
2018-11-12T04:23:21.128Z,100831.62
2018-11-12T04:23:58.981Z,100836.27
2018-11-12T04:24:36.859Z,100840.29
2018-11-12T04:25:15.004Z,100838.61
2018-11-12T04:25:52.927Z,100836.68
2018-11-12T04:26:30.955Z,100835.32
2018-11-12T04:27:09.679Z,100834.20
2018-11-12T04:27:47.532Z,100833.08
2018-11-12T04:28:25.403Z,100831.95
2018-11-12T04:29:03.951Z,100829.47
2018-11-12T04:29:42.198Z,100824.17
2018-11-12T04:30:20.087Z,100821.36
2018-11-12T04:30:57.886Z,100820.47
2018-11-12T04:31:35.884Z,100817.98
2018-11-12T04:32:15.016Z,100808.46
2018-11-12T04:32:54.141Z,100816.86
2018-11-12T04:33:31.918Z,100807.09
2018-11-12T04:34:10.528Z,100808.13
2018-11-12T04:34:48.404Z,100808.38
2018-11-12T04:35:26.216Z,100799.41
2018-11-12T04:36:04.237Z,100802.36
2018-11-12T04:36:42.119Z,100800.38
2018-11-12T04:37:21.809Z,100799.02
2018-11-12T04:37:59.993Z,100795.73
2018-11-12T04:38:37.876Z,100795.73
2018-11-12T04:39:16.175Z,100794.77
2018-11-12T04:39:54.032Z,100791.42
2018-11-12T04:40:33.146Z,100793.02
2018-11-12T04:41:11.159Z,100795.50
2018-11-12T04:41:49.851Z,100787.25
2018-11-12T04:42:28.913Z,100787.39
2018-11-12T04:43:06.907Z,100784.91
2018-11-12T04:43:45.808Z,100781.71
2018-11-12T04:44:23.684Z,100779.50
2018-11-12T04:45:01.521Z,100783.29
2018-11-12T04:45:40.829Z,100781.55
2018-11-12T04:46:18.756Z,100781.55
2018-11-12T04:46:56.892Z,100776.58
2018-11-12T04:47:34.794Z,100771.61
2018-11-12T04:48:13.166Z,100776.16
2018-11-12T04:48:51.280Z,100776.06
2018-11-12T04:49:29.312Z,100776.22
2018-11-12T04:50:07.563Z,100769.17
2018-11-12T04:50:46.231Z,100768.05
2018-11-12T04:51:23.989Z,100769.64
2018-11-12T04:52:05.629Z,100763.73
2018-11-12T04:52:43.607Z,100769.17
2018-11-12T04:53:21.621Z,100766.92
2018-11-12T04:54:00.344Z,100770.12
2018-11-12T04:54:39.323Z,100761.48
2018-11-12T04:55:19.513Z,100764.67
2018-11-12T04:55:58.763Z,100765.38
2018-11-12T04:56:36.604Z,100763.45
2018-11-12T04:57:14.528Z,100764.02
2018-11-12T04:57:52.562Z,100759.14
2018-11-12T04:58:30.392Z,100757.55
2018-11-12T04:59:09.634Z,100755.38
2018-11-12T04:59:47.476Z,100753.13
2018-11-12T05:00:32.230Z,100752.24
2018-11-12T05:01:10.553Z,100748.16
2018-11-12T05:01:48.495Z,100749.45
2018-11-12T05:02:26.803Z,100747.53
2018-11-12T05:03:04.805Z,100745.28
2018-11-12T05:03:43.124Z,100743.73
2018-11-12T05:04:21.083Z,100740.83
2018-11-12T05:05:00.682Z,100740.83
2018-11-12T05:05:38.557Z,100740.59
2018-11-12T05:06:16.799Z,100744.44
2018-11-12T05:06:55.430Z,100740.35
2018-11-12T05:07:33.401Z,100734.91
2018-11-12T05:08:12.576Z,100736.17
2018-11-12T05:08:51.485Z,100735.47
2018-11-12T05:09:30.371Z,100729.70
2018-11-12T05:10:09.386Z,100726.41
2018-11-12T05:10:47.332Z,100729.89
2018-11-12T05:11:25.218Z,100720.59
2018-11-12T05:12:03.247Z,100727.30
2018-11-12T05:12:41.692Z,100720.12
2018-11-12T05:13:19.697Z,100716.13
2018-11-12T05:13:58.413Z,100714.86
2018-11-12T05:14:36.399Z,100710.69
2018-11-12T05:15:16.164Z,100711.72
2018-11-12T05:15:54.074Z,100709.00
2018-11-12T05:16:32.724Z,100710.59
2018-11-12T05:17:10.619Z,100711.72
2018-11-12T05:17:48.416Z,100708.77
2018-11-12T05:18:26.427Z,100705.38
2018-11-12T05:19:04.296Z,100709.47
2018-11-12T05:19:43.600Z,100714.11
2018-11-12T05:20:23.136Z,100714.44
2018-11-12T05:21:01.741Z,100706.70
2018-11-12T05:21:40.293Z,100706.70
2018-11-12T05:22:18.123Z,100705.97
2018-11-12T05:22:56.041Z,100703.01
2018-11-12T05:23:33.876Z,100698.36
2018-11-12T05:24:11.694Z,100693.95
2018-11-12T05:24:49.514Z,100696.67
2018-11-12T05:25:28.290Z,100696.77
2018-11-12T05:26:06.217Z,100695.97
2018-11-12T05:26:44.099Z,100692.50
2018-11-12T05:27:22.437Z,100692.27
2018-11-12T05:28:00.502Z,100691.25
2018-11-12T05:28:38.456Z,100683.59
2018-11-12T05:29:16.272Z,100688.72
2018-11-12T05:29:54.309Z,100685.70
2018-11-12T05:30:32.733Z,100689.48
2018-11-12T05:31:11.455Z,100684.61
2018-11-12T05:31:49.247Z,100683.33
2018-11-12T05:32:28.214Z,100684.06
2018-11-12T05:33:06.319Z,100676.53
2018-11-12T05:33:44.264Z,100671.27
2018-11-12T05:34:22.996Z,100666.39
2018-11-12T05:35:00.787Z,100665.82
2018-11-12T05:35:38.795Z,100672.63
2018-11-12T05:36:17.035Z,100666.66
2018-11-12T05:36:55.478Z,100670.73
2018-11-12T05:37:34.332Z,100666.72
2018-11-12T05:38:12.342Z,100663.84
2018-11-12T05:38:50.198Z,100667.89
2018-11-12T05:39:28.031Z,100665.12
2018-11-12T05:40:05.883Z,100662.23
2018-11-12T05:40:43.689Z,100656.14
2018-11-12T05:41:21.509Z,100657.36
2018-11-12T05:41:59.410Z,100655.02
2018-11-12T05:42:37.355Z,100650.86
2018-11-12T05:43:15.215Z,100655.34
2018-11-12T05:43:54.263Z,100651.89
2018-11-12T05:44:32.154Z,100657.56
2018-11-12T05:45:10.315Z,100652.86
2018-11-12T05:45:51.131Z,100652.78
2018-11-12T05:46:30.217Z,100650.09
2018-11-12T05:47:08.688Z,100649.28
2018-11-12T05:47:47.399Z,100650.55
2018-11-12T05:48:25.271Z,100642.89
2018-11-12T05:49:03.085Z,100646.10
2018-11-12T05:49:41.065Z,100642.20
2018-11-12T05:50:21.520Z,100636.26
2018-11-12T05:50:59.371Z,100633.54
2018-11-12T05:51:37.583Z,100632.45
2018-11-12T05:52:15.555Z,100637.48
2018-11-12T05:52:55.989Z,100629.33
2018-11-12T05:53:33.929Z,100633.86
2018-11-12T05:54:12.040Z,100633.47
2018-11-12T05:54:49.924Z,100625.25
2018-11-12T05:55:28.992Z,100630.91
2018-11-12T05:56:06.808Z,100629.28
2018-11-12T05:56:44.752Z,100627.13
2018-11-12T05:57:22.655Z,100630.16
2018-11-12T05:58:00.595Z,100628.89
2018-11-12T05:58:38.588Z,100625.77
2018-11-12T05:59:16.392Z,100626.17
2018-11-12T05:59:54.314Z,100621.94
2018-11-12T06:00:34.126Z,100625.06
2018-11-12T06:01:12.209Z,100627.02
2018-11-12T06:01:50.022Z,100620.64
2018-11-12T06:02:28.122Z,100619.44
2018-11-12T06:03:06.606Z,100618.16
2018-11-12T06:03:44.700Z,100620.08
2018-11-12T06:04:25.992Z,100611.69
2018-11-12T06:05:04.160Z,100614.73
2018-11-12T06:05:42.196Z,100613.45
2018-11-12T06:06:19.996Z,100607.41
2018-11-12T06:06:58.863Z,100609.48
2018-11-12T06:07:36.685Z,100610.36
2018-11-12T06:08:15.638Z,100608.03
2018-11-12T06:08:54.780Z,100605.15
2018-11-12T06:09:32.675Z,100601.50
2018-11-12T06:10:14.008Z,100609.27
2018-11-12T06:10:51.831Z,100600.70
2018-11-12T06:11:29.824Z,100603.80
2018-11-12T06:12:07.978Z,100605.55
2018-11-12T06:12:46.342Z,100597.25
2018-11-12T06:13:24.197Z,100599.58
2018-11-12T06:14:02.350Z,100597.91
2018-11-12T06:14:40.407Z,100595.56
2018-11-12T06:15:19.582Z,100589.65
2018-11-12T06:15:57.735Z,100588.45
2018-11-12T06:16:36.681Z,100587.98
2018-11-12T06:17:14.516Z,100587.50
2018-11-12T06:17:53.154Z,100588.38
2018-11-12T06:18:31.250Z,100586.30
2018-11-12T06:19:09.218Z,100583.11
2018-11-12T06:19:46.994Z,100587.98
2018-11-12T06:20:26.402Z,100586.14
2018-11-12T06:21:04.395Z,100586.46
2018-11-12T06:21:42.208Z,100583.75
2018-11-12T06:22:20.265Z,100581.03
2018-11-12T06:22:58.981Z,100577.76
2018-11-12T06:23:37.457Z,100573.13
2018-11-12T06:24:16.514Z,100577.44
2018-11-12T06:24:54.400Z,100575.12
2018-11-12T06:25:33.625Z,100571.20
2018-11-12T06:26:12.825Z,100570.27
2018-11-12T06:26:50.752Z,100569.23
2018-11-12T06:27:28.706Z,100566.10
2018-11-12T06:28:06.603Z,100566.17
2018-11-12T06:28:44.578Z,100560.33
2018-11-12T06:29:22.438Z,100564.83
2018-11-12T06:30:00.419Z,100554.38
2018-11-12T06:30:39.306Z,100555.33
2018-11-12T06:31:17.406Z,100558.81
2018-11-12T06:31:55.986Z,100558.67
2018-11-12T06:32:38.631Z,100557.37
2018-11-12T06:33:17.158Z,100559.91
2018-11-12T06:33:55.180Z,100553.82
2018-11-12T06:34:33.221Z,100549.98
2018-11-12T06:35:12.681Z,100551.91
2018-11-12T06:35:50.596Z,100551.81
2018-11-12T06:36:28.764Z,100547.59
2018-11-12T06:37:06.772Z,100548.33
2018-11-12T06:37:45.597Z,100541.95
2018-11-12T06:38:24.022Z,100546.67
2018-11-12T06:39:02.966Z,100545.50
2018-11-12T06:39:41.189Z,100535.02
2018-11-12T06:40:20.379Z,100543.81
2018-11-12T06:40:58.307Z,100537.91
2018-11-12T06:41:36.090Z,100538.08
2018-11-12T06:42:14.584Z,100541.92
2018-11-12T06:42:52.716Z,100536.63
2018-11-12T06:43:30.739Z,100536.77
2018-11-12T06:44:09.491Z,100537.18
2018-11-12T06:44:49.558Z,100536.70
2018-11-12T06:45:29.546Z,100533.84
2018-11-12T06:46:07.665Z,100533.45
2018-11-12T06:46:47.466Z,100539.52
2018-11-12T06:47:28.047Z,100534.23
2018-11-12T06:48:06.005Z,100534.63
2018-11-12T06:48:44.369Z,100529.05
2018-11-12T06:49:22.273Z,100530.73
2018-11-12T06:50:00.132Z,100525.94
2018-11-12T06:50:38.084Z,100526.82
2018-11-12T06:51:16.042Z,100523.95
2018-11-12T06:51:53.963Z,100519.41
2018-11-12T06:52:33.469Z,100519.13
2018-11-12T06:53:11.420Z,100517.83
2018-11-12T06:53:50.114Z,100517.11
2018-11-12T06:54:28.046Z,100514.72
2018-11-12T06:55:08.411Z,100513.44
2018-11-12T06:55:46.302Z,100514.56
2018-11-12T06:56:24.217Z,100512.41
2018-11-12T06:57:03.229Z,100505.94
2018-11-12T06:57:42.131Z,100506.50
2018-11-12T06:58:19.934Z,100505.46
2018-11-12T06:58:58.666Z,100498.68
2018-11-12T06:59:37.716Z,100498.28
2018-11-12T07:00:20.434Z,100491.41
2018-11-12T07:00:59.171Z,100492.55
2018-11-12T07:01:37.084Z,100487.22
2018-11-12T07:02:21.413Z,100487.61
2018-11-12T07:03:00.486Z,100487.45
2018-11-12T07:03:39.401Z,100487.77
2018-11-12T07:04:17.469Z,100485.05
2018-11-12T07:04:55.499Z,100479.86
2018-11-12T07:05:47.607Z,100482.81
2018-11-12T07:06:25.496Z,100481.05
2018-11-12T07:07:03.659Z,100481.28
2018-11-12T07:07:41.833Z,100476.19
2018-11-12T07:08:19.692Z,100477.84
2018-11-12T07:08:57.566Z,100478.78
2018-11-12T07:09:35.543Z,100480.53
2018-11-12T07:13:28.268Z,100473.73
2018-11-12T07:14:06.222Z,100467.51
2018-11-12T07:14:44.129Z,100463.91
2018-11-12T07:15:26.345Z,100471.26
2018-11-12T07:16:04.620Z,100466.63
2018-11-12T07:16:42.935Z,100464.41
2018-11-12T07:17:20.954Z,100468.07
2018-11-12T07:17:58.952Z,100466.56
2018-11-12T07:18:39.705Z,100462.20
2018-11-12T07:19:17.586Z,100460.78
2018-11-12T07:19:59.850Z,100461.48
2018-11-12T07:20:41.338Z,100457.26
2018-11-12T07:21:19.435Z,100456.31
2018-11-12T07:21:57.454Z,100457.28
2018-11-12T07:22:36.550Z,100456.01
2018-11-12T07:23:14.631Z,100453.94
2018-11-12T07:23:52.457Z,100452.58
2018-11-12T07:24:30.303Z,100452.34
2018-11-12T07:25:09.053Z,100448.03
2018-11-12T07:25:46.946Z,100444.95
2018-11-12T07:26:24.790Z,100445.91
2018-11-12T07:27:03.083Z,100444.55